sensor_id;sensor_type;location;lat;lon;timestamp;temperature;humidity
11762;DHT22;5938;47.098;15.474;2022-12-18T00:02:24;-4.90;99.90
11762;DHT22;5938;47.098;15.474;2022-12-18T00:06:29;-4.90;99.90
11762;DHT22;5938;47.098;15.474;2022-12-18T00:10:34;-5.00;99.90
11762;DHT22;5938;47.098;15.474;2022-12-18T00:14:37;-4.90;99.90
11762;DHT22;5938;47.098;15.474;2022-12-18T00:18:42;-5.20;99.90
11762;DHT22;5938;47.098;15.474;2022-12-18T00:22:46;-5.20;99.90
11762;DHT22;5938;47.098;15.474;2022-12-18T00:26:51;-5.10;99.90
11762;DHT22;5938;47.098;15.474;2022-12-18T00:31:00;-5.30;99.90
11762;DHT22;5938;47.098;15.474;2022-12-18T00:35:05;-5.30;99.90
11762;DHT22;5938;47.098;15.474;2022-12-18T00:39:10;-5.70;99.90
11762;DHT22;5938;47.098;15.474;2022-12-18T00:43:17;-5.30;99.90
11762;DHT22;5938;47.098;15.474;2022-12-18T00:47:21;-5.50;99.90
11762;DHT22;5938;47.098;15.474;2022-12-18T00:51:25;-6.10;99.90
11762;DHT22;5938;47.098;15.474;2022-12-18T00:55:29;-5.60;99.90
11762;DHT22;5938;47.098;15.474;2022-12-18T00:59:36;-5.90;99.90
11762;DHT22;5938;47.098;15.474;2022-12-18T01:03:39;-6.00;99.90
11762;DHT22;5938;47.098;15.474;2022-12-18T01:07:43;-6.10;99.90
11762;DHT22;5938;47.098;15.474;2022-12-18T01:11:47;-5.80;99.90
11762;DHT22;5938;47.098;15.474;2022-12-18T01:15:53;-5.70;99.90
11762;DHT22;5938;47.098;15.474;2022-12-18T01:19:57;-5.70;99.90
11762;DHT22;5938;47.098;15.474;2022-12-18T01:24:02;-6.20;99.90
11762;DHT22;5938;47.098;15.474;2022-12-18T01:28:05;-5.90;99.90
11762;DHT22;5938;47.098;15.474;2022-12-18T01:32:11;-5.90;99.90
11762;DHT22;5938;47.098;15.474;2022-12-18T01:36:17;-5.90;99.90
11762;DHT22;5938;47.098;15.474;2022-12-18T01:40:22;-5.80;99.90
11762;DHT22;5938;47.098;15.474;2022-12-18T01:44:51;-6.50;99.90
11762;DHT22;5938;47.098;15.474;2022-12-18T01:49:01;-5.80;99.90
11762;DHT22;5938;47.098;15.474;2022-12-18T01:53:10;-5.90;99.90
11762;DHT22;5938;47.098;15.474;2022-12-18T01:57:15;-6.10;99.90
11762;DHT22;5938;47.098;15.474;2022-12-18T02:01:22;-6.10;99.90
11762;DHT22;5938;47.098;15.474;2022-12-18T02:05:41;-6.00;99.90
11762;DHT22;5938;47.098;15.474;2022-12-18T02:09:51;-6.00;99.90
11762;DHT22;5938;47.098;15.474;2022-12-18T02:14:06;-6.60;99.90
11762;DHT22;5938;47.098;15.474;2022-12-18T02:18:20;-6.70;99.90
11762;DHT22;5938;47.098;15.474;2022-12-18T02:22:36;-6.60;99.90
11762;DHT22;5938;47.098;15.474;2022-12-18T02:26:48;-6.30;99.90
11762;DHT22;5938;47.098;15.474;2022-12-18T02:30:53;-6.30;99.90
11762;DHT22;5938;47.098;15.474;2022-12-18T02:35:00;-6.70;99.90
11762;DHT22;5938;47.098;15.474;2022-12-18T02:39:07;-6.20;99.90
11762;DHT22;5938;47.098;15.474;2022-12-18T02:43:15;-6.90;99.90
11762;DHT22;5938;47.098;15.474;2022-12-18T02:47:21;-6.20;99.90
11762;DHT22;5938;47.098;15.474;2022-12-18T02:51:30;-6.40;99.90
11762;DHT22;5938;47.098;15.474;2022-12-18T02:55:47;-6.70;99.90
11762;DHT22;5938;47.098;15.474;2022-12-18T03:00:00;-6.70;99.90
11762;DHT22;5938;47.098;15.474;2022-12-18T03:04:10;-7.00;99.90
11762;DHT22;5938;47.098;15.474;2022-12-18T03:08:18;-6.40;99.90
11762;DHT22;5938;47.098;15.474;2022-12-18T03:12:30;-6.30;99.90
11762;DHT22;5938;47.098;15.474;2022-12-18T03:16:36;-7.10;99.90
11762;DHT22;5938;47.098;15.474;2022-12-18T03:20:43;-6.60;99.90
11762;DHT22;5938;47.098;15.474;2022-12-18T03:24:48;-6.60;99.90
11762;DHT22;5938;47.098;15.474;2022-12-18T03:28:55;-6.60;99.90
11762;DHT22;5938;47.098;15.474;2022-12-18T03:33:08;-6.70;99.90
11762;DHT22;5938;47.098;15.474;2022-12-18T03:37:13;-6.70;99.90
11762;DHT22;5938;47.098;15.474;2022-12-18T03:41:22;-6.70;99.90
11762;DHT22;5938;47.098;15.474;2022-12-18T03:45:34;-6.80;99.90
11762;DHT22;5938;47.098;15.474;2022-12-18T03:49:46;-6.60;99.90
11762;DHT22;5938;47.098;15.474;2022-12-18T03:53:55;-6.70;99.90
11762;DHT22;5938;47.098;15.474;2022-12-18T03:58:04;-6.60;99.90
11762;DHT22;5938;47.098;15.474;2022-12-18T04:02:10;-6.80;99.90
11762;DHT22;5938;47.098;15.474;2022-12-18T04:06:36;-7.00;99.90
11762;DHT22;5938;47.098;15.474;2022-12-18T04:10:41;-7.00;99.90
11762;DHT22;5938;47.098;15.474;2022-12-18T04:14:45;-6.70;99.90
11762;DHT22;5938;47.098;15.474;2022-12-18T04:18:49;-7.20;99.90
11762;DHT22;5938;47.098;15.474;2022-12-18T04:22:56;-7.40;99.90
11762;DHT22;5938;47.098;15.474;2022-12-18T04:27:01;-7.40;99.90
11762;DHT22;5938;47.098;15.474;2022-12-18T04:31:07;-7.20;99.90
11762;DHT22;5938;47.098;15.474;2022-12-18T04:35:11;-6.80;99.90
11762;DHT22;5938;47.098;15.474;2022-12-18T04:39:16;-6.80;99.90
11762;DHT22;5938;47.098;15.474;2022-12-18T04:43:20;-6.80;99.90
11762;DHT22;5938;47.098;15.474;2022-12-18T04:47:24;-7.30;99.90
11762;DHT22;5938;47.098;15.474;2022-12-18T04:51:28;-6.80;99.90
11762;DHT22;5938;47.098;15.474;2022-12-18T04:55:34;-6.90;99.90
11762;DHT22;5938;47.098;15.474;2022-12-18T04:59:39;-7.30;99.90
11762;DHT22;5938;47.098;15.474;2022-12-18T05:03:43;-7.00;99.90
11762;DHT22;5938;47.098;15.474;2022-12-18T05:07:47;-7.60;99.90
11762;DHT22;5938;47.098;15.474;2022-12-18T05:11:53;-7.10;99.90
11762;DHT22;5938;47.098;15.474;2022-12-18T05:15:58;-7.10;99.90
11762;DHT22;5938;47.098;15.474;2022-12-18T05:20:03;-7.50;99.90
11762;DHT22;5938;47.098;15.474;2022-12-18T05:24:07;-7.00;99.90
11762;DHT22;5938;47.098;15.474;2022-12-18T05:28:12;-7.10;99.90
11762;DHT22;5938;47.098;15.474;2022-12-18T05:32:16;-7.20;99.90
11762;DHT22;5938;47.098;15.474;2022-12-18T05:36:19;-7.10;99.90
11762;DHT22;5938;47.098;15.474;2022-12-18T05:40:23;-7.00;99.90
11762;DHT22;5938;47.098;15.474;2022-12-18T05:44:28;-7.20;99.90
11762;DHT22;5938;47.098;15.474;2022-12-18T05:48:33;-7.10;99.90
11762;DHT22;5938;47.098;15.474;2022-12-18T05:52:37;-7.20;99.90
11762;DHT22;5938;47.098;15.474;2022-12-18T05:56:40;-7.20;99.90
11762;DHT22;5938;47.098;15.474;2022-12-18T06:00:51;-7.20;99.90
11762;DHT22;5938;47.098;15.474;2022-12-18T06:04:55;-7.20;99.90
11762;DHT22;5938;47.098;15.474;2022-12-18T06:08:59;-7.20;99.90
11762;DHT22;5938;47.098;15.474;2022-12-18T06:13:04;-7.20;99.90
11762;DHT22;5938;47.098;15.474;2022-12-18T06:17:09;-7.20;99.90
11762;DHT22;5938;47.098;15.474;2022-12-18T06:21:12;-7.10;99.90
11762;DHT22;5938;47.098;15.474;2022-12-18T06:25:16;-7.10;99.90
11762;DHT22;5938;47.098;15.474;2022-12-18T06:29:20;-7.30;99.90
11762;DHT22;5938;47.098;15.474;2022-12-18T06:33:27;-6.80;99.90
11762;DHT22;5938;47.098;15.474;2022-12-18T06:37:31;-6.60;99.90
11762;DHT22;5938;47.098;15.474;2022-12-18T06:41:35;-6.50;99.90
11762;DHT22;5938;47.098;15.474;2022-12-18T06:45:39;-6.30;99.90
11762;DHT22;5938;47.098;15.474;2022-12-18T06:49:45;-6.10;99.90
11762;DHT22;5938;47.098;15.474;2022-12-18T06:53:49;-6.00;99.90
11762;DHT22;5938;47.098;15.474;2022-12-18T06:57:53;-5.90;99.90
11762;DHT22;5938;47.098;15.474;2022-12-18T07:01:57;-5.50;99.90
11762;DHT22;5938;47.098;15.474;2022-12-18T07:06:03;-5.50;99.90
11762;DHT22;5938;47.098;15.474;2022-12-18T07:10:07;-5.40;99.90
11762;DHT22;5938;47.098;15.474;2022-12-18T07:14:10;-5.40;99.90
11762;DHT22;5938;47.098;15.474;2022-12-18T07:18:14;-5.30;99.90
11762;DHT22;5938;47.098;15.474;2022-12-18T07:22:19;-5.10;99.90
11762;DHT22;5938;47.098;15.474;2022-12-18T07:26:23;-5.00;99.90
11762;DHT22;5938;47.098;15.474;2022-12-18T07:30:26;-4.90;99.90
11762;DHT22;5938;47.098;15.474;2022-12-18T07:34:30;-4.90;99.90
11762;DHT22;5938;47.098;15.474;2022-12-18T07:38:35;-4.50;99.90
11762;DHT22;5938;47.098;15.474;2022-12-18T07:42:39;-4.50;99.90
11762;DHT22;5938;47.098;15.474;2022-12-18T07:46:44;-4.60;99.90
11762;DHT22;5938;47.098;15.474;2022-12-18T07:50:48;-4.40;99.90
11762;DHT22;5938;47.098;15.474;2022-12-18T07:54:53;-4.10;99.90
11762;DHT22;5938;47.098;15.474;2022-12-18T07:58:58;-4.20;99.90
11762;DHT22;5938;47.098;15.474;2022-12-18T08:03:02;-3.90;99.90
11762;DHT22;5938;47.098;15.474;2022-12-18T08:07:09;-3.80;99.90
11762;DHT22;5938;47.098;15.474;2022-12-18T08:11:14;-3.90;99.90
11762;DHT22;5938;47.098;15.474;2022-12-18T08:15:18;-3.70;99.90
11762;DHT22;5938;47.098;15.474;2022-12-18T08:19:21;-3.40;99.90
11762;DHT22;5938;47.098;15.474;2022-12-18T08:23:25;-3.30;99.90
11762;DHT22;5938;47.098;15.474;2022-12-18T08:27:31;-3.00;99.90
11762;DHT22;5938;47.098;15.474;2022-12-18T08:31:35;-2.90;99.90
11762;DHT22;5938;47.098;15.474;2022-12-18T08:35:38;-2.70;99.90
11762;DHT22;5938;47.098;15.474;2022-12-18T08:39:47;-2.60;99.90
11762;DHT22;5938;47.098;15.474;2022-12-18T08:43:52;-3.20;99.90
11762;DHT22;5938;47.098;15.474;2022-12-18T08:48:13;-3.20;99.90
11762;DHT22;5938;47.098;15.474;2022-12-18T08:52:23;-3.00;99.90
11762;DHT22;5938;47.098;15.474;2022-12-18T08:56:26;-2.90;99.90
11762;DHT22;5938;47.098;15.474;2022-12-18T09:00:33;-2.60;99.90
11762;DHT22;5938;47.098;15.474;2022-12-18T09:04:37;-2.60;99.90
11762;DHT22;5938;47.098;15.474;2022-12-18T09:08:42;-2.50;99.90
11762;DHT22;5938;47.098;15.474;2022-12-18T09:12:46;-2.50;99.90
11762;DHT22;5938;47.098;15.474;2022-12-18T09:16:51;-2.40;99.90
11762;DHT22;5938;47.098;15.474;2022-12-18T09:20:55;-2.50;99.90
11762;DHT22;5938;47.098;15.474;2022-12-18T09:24:58;-2.60;99.90
11762;DHT22;5938;47.098;15.474;2022-12-18T09:29:02;-2.60;99.90
11762;DHT22;5938;47.098;15.474;2022-12-18T09:33:08;-2.30;99.90
11762;DHT22;5938;47.098;15.474;2022-12-18T09:37:12;-2.30;99.90
11762;DHT22;5938;47.098;15.474;2022-12-18T09:41:33;-2.40;99.90
11762;DHT22;5938;47.098;15.474;2022-12-18T09:45:41;-2.20;99.90
11762;DHT22;5938;47.098;15.474;2022-12-18T09:49:50;-2.10;99.90
11762;DHT22;5938;47.098;15.474;2022-12-18T09:53:58;-1.60;99.90
11762;DHT22;5938;47.098;15.474;2022-12-18T09:58:10;-1.30;99.90
11762;DHT22;5938;47.098;15.474;2022-12-18T10:02:24;-1.40;99.90
11762;DHT22;5938;47.098;15.474;2022-12-18T10:06:37;-1.30;99.90
11762;DHT22;5938;47.098;15.474;2022-12-18T10:10:47;-1.40;99.90
11762;DHT22;5938;47.098;15.474;2022-12-18T10:14:57;-1.40;99.90
11762;DHT22;5938;47.098;15.474;2022-12-18T10:19:11;-1.30;99.90
11762;DHT22;5938;47.098;15.474;2022-12-18T10:23:22;-1.10;99.90
11762;DHT22;5938;47.098;15.474;2022-12-18T10:27:30;-0.50;99.90
11762;DHT22;5938;47.098;15.474;2022-12-18T10:31:34;-0.20;99.90
11762;DHT22;5938;47.098;15.474;2022-12-18T10:35:41;-0.20;99.90
11762;DHT22;5938;47.098;15.474;2022-12-18T10:40:10;-0.20;99.90
11762;DHT22;5938;47.098;15.474;2022-12-18T10:44:24;-0.60;99.90
11762;DHT22;5938;47.098;15.474;2022-12-18T10:48:28;-0.40;99.90
11762;DHT22;5938;47.098;15.474;2022-12-18T10:52:33;-0.60;99.90
11762;DHT22;5938;47.098;15.474;2022-12-18T10:56:44;-0.30;99.90
11762;DHT22;5938;47.098;15.474;2022-12-18T11:01:06;-0.50;99.90
11762;DHT22;5938;47.098;15.474;2022-12-18T11:05:28;-0.40;99.90
11762;DHT22;5938;47.098;15.474;2022-12-18T11:09:33;-0.50;99.90
11762;DHT22;5938;47.098;15.474;2022-12-18T11:13:39;-0.50;99.90
11762;DHT22;5938;47.098;15.474;2022-12-18T11:17:43;-0.40;99.90
11762;DHT22;5938;47.098;15.474;2022-12-18T11:21:51;-0.30;99.90
11762;DHT22;5938;47.098;15.474;2022-12-18T11:25:58;-0.50;99.90
11762;DHT22;5938;47.098;15.474;2022-12-18T11:30:13;-0.50;99.90
11762;DHT22;5938;47.098;15.474;2022-12-18T11:34:27;-0.40;99.90
11762;DHT22;5938;47.098;15.474;2022-12-18T11:38:34;-0.30;99.90
11762;DHT22;5938;47.098;15.474;2022-12-18T11:42:44;-0.60;99.90
11762;DHT22;5938;47.098;15.474;2022-12-18T11:46:53;-0.70;99.90
11762;DHT22;5938;47.098;15.474;2022-12-18T11:51:01;-0.50;99.90
11762;DHT22;5938;47.098;15.474;2022-12-18T11:55:12;-0.60;99.90
11762;DHT22;5938;47.098;15.474;2022-12-18T11:59:26;-0.90;99.90
11762;DHT22;5938;47.098;15.474;2022-12-18T12:03:59;-0.80;99.90
11762;DHT22;5938;47.098;15.474;2022-12-18T12:08:12;-0.60;99.90
11762;DHT22;5938;47.098;15.474;2022-12-18T12:12:33;-0.70;99.90
11762;DHT22;5938;47.098;15.474;2022-12-18T12:16:56;-0.80;99.90
11762;DHT22;5938;47.098;15.474;2022-12-18T12:21:07;-0.90;99.90
11762;DHT22;5938;47.098;15.474;2022-12-18T12:25:30;-1.00;99.90
11762;DHT22;5938;47.098;15.474;2022-12-18T12:29:46;-1.00;99.90
11762;DHT22;5938;47.098;15.474;2022-12-18T12:38:26;-1.10;99.90
11762;DHT22;5938;47.098;15.474;2022-12-18T12:42:34;-1.20;99.90
11762;DHT22;5938;47.098;15.474;2022-12-18T12:47:00;-1.10;99.90
11762;DHT22;5938;47.098;15.474;2022-12-18T12:51:15;-1.30;99.90
11762;DHT22;5938;47.098;15.474;2022-12-18T12:55:23;-1.30;99.90
11762;DHT22;5938;47.098;15.474;2022-12-18T12:59:35;-1.20;99.90
11762;DHT22;5938;47.098;15.474;2022-12-18T13:03:47;-1.50;99.90
11762;DHT22;5938;47.098;15.474;2022-12-18T13:07:55;-1.50;99.90
11762;DHT22;5938;47.098;15.474;2022-12-18T13:12:04;-1.50;99.90
11762;DHT22;5938;47.098;15.474;2022-12-18T13:16:30;-1.60;99.90
11762;DHT22;5938;47.098;15.474;2022-12-18T13:20:34;-1.30;99.90
11762;DHT22;5938;47.098;15.474;2022-12-18T13:24:39;-2.10;99.90
11762;DHT22;5938;47.098;15.474;2022-12-18T13:28:52;-1.50;99.90
11762;DHT22;5938;47.098;15.474;2022-12-18T13:33:36;-1.50;99.90
11762;DHT22;5938;47.098;15.474;2022-12-18T13:37:59;-1.80;99.90
11762;DHT22;5938;47.098;15.474;2022-12-18T13:42:37;-1.80;99.90
11762;DHT22;5938;47.098;15.474;2022-12-18T13:47:01;-1.60;99.90
11762;DHT22;5938;47.098;15.474;2022-12-18T13:51:08;-2.00;99.90
11762;DHT22;5938;47.098;15.474;2022-12-18T13:55:17;-2.00;99.90
11762;DHT22;5938;47.098;15.474;2022-12-18T13:59:23;-1.90;99.90
11762;DHT22;5938;47.098;15.474;2022-12-18T14:03:29;-1.80;99.90
11762;DHT22;5938;47.098;15.474;2022-12-18T14:07:33;-2.10;99.90
11762;DHT22;5938;47.098;15.474;2022-12-18T14:11:49;-2.00;99.90
11762;DHT22;5938;47.098;15.474;2022-12-18T14:15:53;-2.00;99.90
11762;DHT22;5938;47.098;15.474;2022-12-18T14:20:00;-1.90;99.90
11762;DHT22;5938;47.098;15.474;2022-12-18T14:24:05;-1.90;99.90
11762;DHT22;5938;47.098;15.474;2022-12-18T14:28:14;-1.80;99.90
11762;DHT22;5938;47.098;15.474;2022-12-18T14:32:20;-2.00;99.90
11762;DHT22;5938;47.098;15.474;2022-12-18T14:36:28;-2.10;99.90
11762;DHT22;5938;47.098;15.474;2022-12-18T14:40:31;-2.20;99.90
11762;DHT22;5938;47.098;15.474;2022-12-18T14:44:35;-2.40;99.90
11762;DHT22;5938;47.098;15.474;2022-12-18T14:48:59;-2.40;99.90
11762;DHT22;5938;47.098;15.474;2022-12-18T14:53:04;-2.40;99.90
11762;DHT22;5938;47.098;15.474;2022-12-18T14:57:21;-2.40;99.90
11762;DHT22;5938;47.098;15.474;2022-12-18T15:01:28;-2.30;99.90
11762;DHT22;5938;47.098;15.474;2022-12-18T15:05:35;-2.10;99.90
11762;DHT22;5938;47.098;15.474;2022-12-18T15:09:41;-2.40;99.90
11762;DHT22;5938;47.098;15.474;2022-12-18T15:13:47;-2.30;99.90
11762;DHT22;5938;47.098;15.474;2022-12-18T15:17:57;-2.20;99.90
11762;DHT22;5938;47.098;15.474;2022-12-18T15:22:02;-2.20;99.90
11762;DHT22;5938;47.098;15.474;2022-12-18T15:26:11;-2.20;99.90
11762;DHT22;5938;47.098;15.474;2022-12-18T15:30:22;-2.10;99.90
11762;DHT22;5938;47.098;15.474;2022-12-18T15:34:29;-2.00;99.90
11762;DHT22;5938;47.098;15.474;2022-12-18T15:38:34;-2.20;99.90
11762;DHT22;5938;47.098;15.474;2022-12-18T15:42:41;-2.10;99.90
11762;DHT22;5938;47.098;15.474;2022-12-18T15:47:04;-2.30;99.90
11762;DHT22;5938;47.098;15.474;2022-12-18T15:51:14;-2.00;99.90
11762;DHT22;5938;47.098;15.474;2022-12-18T15:55:21;-2.00;99.90
11762;DHT22;5938;47.098;15.474;2022-12-18T16:00:05;-2.10;99.90
11762;DHT22;5938;47.098;15.474;2022-12-18T16:04:12;-2.00;99.90
11762;DHT22;5938;47.098;15.474;2022-12-18T16:08:17;-2.20;99.90
11762;DHT22;5938;47.098;15.474;2022-12-18T16:12:25;-2.10;99.90
11762;DHT22;5938;47.098;15.474;2022-12-18T16:16:31;-2.10;99.90
11762;DHT22;5938;47.098;15.474;2022-12-18T16:20:36;-2.30;99.90
11762;DHT22;5938;47.098;15.474;2022-12-18T16:24:41;-2.20;99.90
11762;DHT22;5938;47.098;15.474;2022-12-18T16:28:46;-2.10;99.90
11762;DHT22;5938;47.098;15.474;2022-12-18T16:32:53;-2.10;99.90
11762;DHT22;5938;47.098;15.474;2022-12-18T16:37:00;-2.30;99.90
11762;DHT22;5938;47.098;15.474;2022-12-18T16:41:17;-2.30;99.90
11762;DHT22;5938;47.098;15.474;2022-12-18T16:45:38;-2.40;99.90
11762;DHT22;5938;47.098;15.474;2022-12-18T16:49:46;-2.40;99.90
11762;DHT22;5938;47.098;15.474;2022-12-18T16:53:54;-2.10;99.90
11762;DHT22;5938;47.098;15.474;2022-12-18T16:57:59;-2.30;99.90
11762;DHT22;5938;47.098;15.474;2022-12-18T17:02:05;-2.00;99.90
11762;DHT22;5938;47.098;15.474;2022-12-18T17:06:12;-2.00;99.90
11762;DHT22;5938;47.098;15.474;2022-12-18T17:10:18;-2.00;99.90
11762;DHT22;5938;47.098;15.474;2022-12-18T17:14:26;-1.90;99.90
11762;DHT22;5938;47.098;15.474;2022-12-18T17:18:32;-1.90;99.90
11762;DHT22;5938;47.098;15.474;2022-12-18T17:22:39;-2.00;99.90
11762;DHT22;5938;47.098;15.474;2022-12-18T17:26:53;-2.00;99.90
11762;DHT22;5938;47.098;15.474;2022-12-18T17:30:58;-2.00;99.90
11762;DHT22;5938;47.098;15.474;2022-12-18T17:35:02;-2.00;99.90
11762;DHT22;5938;47.098;15.474;2022-12-18T17:39:16;-2.00;99.90
11762;DHT22;5938;47.098;15.474;2022-12-18T17:43:22;-2.20;99.90
11762;DHT22;5938;47.098;15.474;2022-12-18T17:47:26;-2.30;99.90
11762;DHT22;5938;47.098;15.474;2022-12-18T17:51:31;-2.10;99.90
11762;DHT22;5938;47.098;15.474;2022-12-18T17:55:38;-2.10;99.90
11762;DHT22;5938;47.098;15.474;2022-12-18T17:59:43;-2.10;99.90
11762;DHT22;5938;47.098;15.474;2022-12-18T18:03:48;-2.10;99.90
11762;DHT22;5938;47.098;15.474;2022-12-18T18:07:55;-2.20;99.90
11762;DHT22;5938;47.098;15.474;2022-12-18T18:12:02;-2.00;99.90
11762;DHT22;5938;47.098;15.474;2022-12-18T18:16:25;-2.00;99.90
11762;DHT22;5938;47.098;15.474;2022-12-18T18:20:38;-2.00;99.90
11762;DHT22;5938;47.098;15.474;2022-12-18T18:24:42;-2.00;99.90
11762;DHT22;5938;47.098;15.474;2022-12-18T18:28:54;-1.90;99.90
11762;DHT22;5938;47.098;15.474;2022-12-18T18:33:00;-1.80;99.90
11762;DHT22;5938;47.098;15.474;2022-12-18T18:37:13;-2.10;99.90
11762;DHT22;5938;47.098;15.474;2022-12-18T18:41:19;-2.10;99.90
11762;DHT22;5938;47.098;15.474;2022-12-18T18:45:27;-2.10;99.90
11762;DHT22;5938;47.098;15.474;2022-12-18T18:49:32;-1.90;99.90
11762;DHT22;5938;47.098;15.474;2022-12-18T18:53:37;-1.80;99.90
11762;DHT22;5938;47.098;15.474;2022-12-18T18:57:43;-1.90;99.90
11762;DHT22;5938;47.098;15.474;2022-12-18T19:01:49;-1.80;99.90
11762;DHT22;5938;47.098;15.474;2022-12-18T19:05:56;-2.10;99.90
11762;DHT22;5938;47.098;15.474;2022-12-18T19:10:02;-1.90;99.90
11762;DHT22;5938;47.098;15.474;2022-12-18T19:14:08;-1.80;99.90
11762;DHT22;5938;47.098;15.474;2022-12-18T19:18:22;-2.00;99.90
11762;DHT22;5938;47.098;15.474;2022-12-18T19:22:26;-1.80;99.90
11762;DHT22;5938;47.098;15.474;2022-12-18T19:26:31;-1.90;99.90
11762;DHT22;5938;47.098;15.474;2022-12-18T19:30:37;-1.80;99.90
11762;DHT22;5938;47.098;15.474;2022-12-18T19:34:46;-1.80;99.90
11762;DHT22;5938;47.098;15.474;2022-12-18T19:38:55;-1.90;99.90
11762;DHT22;5938;47.098;15.474;2022-12-18T19:43:04;-1.80;99.90
11762;DHT22;5938;47.098;15.474;2022-12-18T19:47:09;-2.00;99.90
11762;DHT22;5938;47.098;15.474;2022-12-18T19:51:18;-1.80;99.90
11762;DHT22;5938;47.098;15.474;2022-12-18T19:55:25;-1.90;99.90
11762;DHT22;5938;47.098;15.474;2022-12-18T19:59:32;-1.80;99.90
11762;DHT22;5938;47.098;15.474;2022-12-18T20:03:40;-1.90;99.90
11762;DHT22;5938;47.098;15.474;2022-12-18T20:07:56;-1.80;99.90
11762;DHT22;5938;47.098;15.474;2022-12-18T20:12:01;-1.90;99.90
11762;DHT22;5938;47.098;15.474;2022-12-18T20:16:07;-1.70;99.90
11762;DHT22;5938;47.098;15.474;2022-12-18T20:20:13;-1.80;99.90
11762;DHT22;5938;47.098;15.474;2022-12-18T20:24:21;-1.70;99.90
11762;DHT22;5938;47.098;15.474;2022-12-18T20:28:26;-1.80;99.90
11762;DHT22;5938;47.098;15.474;2022-12-18T20:32:31;-1.90;99.90
11762;DHT22;5938;47.098;15.474;2022-12-18T20:36:38;-1.70;99.90
11762;DHT22;5938;47.098;15.474;2022-12-18T20:41:18;-1.80;99.90
11762;DHT22;5938;47.098;15.474;2022-12-18T20:45:46;-1.80;99.90
11762;DHT22;5938;47.098;15.474;2022-12-18T20:49:50;-2.00;99.90
11762;DHT22;5938;47.098;15.474;2022-12-18T20:53:54;-2.00;99.90
11762;DHT22;5938;47.098;15.474;2022-12-18T20:58:03;-2.00;99.90
11762;DHT22;5938;47.098;15.474;2022-12-18T21:02:08;-2.00;99.90
11762;DHT22;5938;47.098;15.474;2022-12-18T21:06:16;-2.00;99.90
11762;DHT22;5938;47.098;15.474;2022-12-18T21:10:20;-1.90;99.90
11762;DHT22;5938;47.098;15.474;2022-12-18T21:14:27;-2.00;99.90
11762;DHT22;5938;47.098;15.474;2022-12-18T21:18:30;-1.90;99.90
11762;DHT22;5938;47.098;15.474;2022-12-18T21:22:35;-1.80;99.90
11762;DHT22;5938;47.098;15.474;2022-12-18T21:26:39;-1.90;99.90
11762;DHT22;5938;47.098;15.474;2022-12-18T21:30:48;-1.70;99.90
11762;DHT22;5938;47.098;15.474;2022-12-18T21:34:57;-1.80;99.90
11762;DHT22;5938;47.098;15.474;2022-12-18T21:39:09;-1.70;99.90
11762;DHT22;5938;47.098;15.474;2022-12-18T21:43:15;-1.90;99.90
11762;DHT22;5938;47.098;15.474;2022-12-18T21:47:39;-1.90;99.90
11762;DHT22;5938;47.098;15.474;2022-12-18T21:51:44;-2.10;99.90
11762;DHT22;5938;47.098;15.474;2022-12-18T21:55:56;-1.80;99.90
11762;DHT22;5938;47.098;15.474;2022-12-18T21:59:59;-2.00;99.90
11762;DHT22;5938;47.098;15.474;2022-12-18T22:04:13;-2.10;99.90
11762;DHT22;5938;47.098;15.474;2022-12-18T22:08:18;-1.90;99.90
11762;DHT22;5938;47.098;15.474;2022-12-18T22:12:23;-1.70;99.90
11762;DHT22;5938;47.098;15.474;2022-12-18T22:16:46;-1.80;99.90
11762;DHT22;5938;47.098;15.474;2022-12-18T22:21:01;-1.70;99.90
11762;DHT22;5938;47.098;15.474;2022-12-18T22:25:06;-1.80;99.90
11762;DHT22;5938;47.098;15.474;2022-12-18T22:29:19;-1.80;99.90
11762;DHT22;5938;47.098;15.474;2022-12-18T22:33:41;-1.70;99.90
11762;DHT22;5938;47.098;15.474;2022-12-18T22:37:50;-1.70;99.90
11762;DHT22;5938;47.098;15.474;2022-12-18T22:41:55;-1.60;99.90
11762;DHT22;5938;47.098;15.474;2022-12-18T22:46:05;-1.70;99.90
11762;DHT22;5938;47.098;15.474;2022-12-18T22:50:19;-1.80;99.90
11762;DHT22;5938;47.098;15.474;2022-12-18T22:54:26;-1.70;99.90
11762;DHT22;5938;47.098;15.474;2022-12-18T22:58:32;-1.80;99.90
11762;DHT22;5938;47.098;15.474;2022-12-18T23:02:37;-1.60;99.90
11762;DHT22;5938;47.098;15.474;2022-12-18T23:06:42;-1.80;99.90
11762;DHT22;5938;47.098;15.474;2022-12-18T23:10:51;-1.70;99.90
11762;DHT22;5938;47.098;15.474;2022-12-18T23:14:56;-1.80;99.90
11762;DHT22;5938;47.098;15.474;2022-12-18T23:19:00;-1.90;99.90
11762;DHT22;5938;47.098;15.474;2022-12-18T23:23:04;-1.80;99.90
11762;DHT22;5938;47.098;15.474;2022-12-18T23:27:09;-1.70;99.90
11762;DHT22;5938;47.098;15.474;2022-12-18T23:31:14;-1.60;99.90
11762;DHT22;5938;47.098;15.474;2022-12-18T23:35:19;-1.60;99.90
11762;DHT22;5938;47.098;15.474;2022-12-18T23:39:23;-1.70;99.90
11762;DHT22;5938;47.098;15.474;2022-12-18T23:43:32;-1.80;99.90
11762;DHT22;5938;47.098;15.474;2022-12-18T23:47:36;-1.70;99.90
11762;DHT22;5938;47.098;15.474;2022-12-18T23:51:40;-1.80;99.90
11762;DHT22;5938;47.098;15.474;2022-12-18T23:55:46;-1.70;99.90
11762;DHT22;5938;47.098;15.474;2022-12-18T23:59:54;-1.80;99.90
